sensor_id;sensor_type;location;lat;lon;timestamp;temperature;humidity
11615;DHT22;5863;52.832;4.758;2023-03-14T00:00:55;9.90;99.90
11615;DHT22;5863;52.832;4.758;2023-03-14T00:03:22;9.90;99.90
11615;DHT22;5863;52.832;4.758;2023-03-14T00:05:48;9.90;99.90
11615;DHT22;5863;52.832;4.758;2023-03-14T00:08:16;9.90;99.90
11615;DHT22;5863;52.832;4.758;2023-03-14T00:10:44;9.90;99.90
11615;DHT22;5863;52.832;4.758;2023-03-14T00:13:11;9.90;99.90
11615;DHT22;5863;52.832;4.758;2023-03-14T00:15:38;9.90;99.90
11615;DHT22;5863;52.832;4.758;2023-03-14T00:18:04;10.00;99.90
11615;DHT22;5863;52.832;4.758;2023-03-14T00:20:31;9.90;99.90
11615;DHT22;5863;52.832;4.758;2023-03-14T00:22:58;9.90;99.90
11615;DHT22;5863;52.832;4.758;2023-03-14T00:25:26;9.90;99.90
11615;DHT22;5863;52.832;4.758;2023-03-14T00:27:53;9.90;99.90
11615;DHT22;5863;52.832;4.758;2023-03-14T00:30:20;10.00;99.90
11615;DHT22;5863;52.832;4.758;2023-03-14T00:32:47;9.90;99.90
11615;DHT22;5863;52.832;4.758;2023-03-14T00:35:13;9.90;99.90
11615;DHT22;5863;52.832;4.758;2023-03-14T00:37:41;9.90;99.90
11615;DHT22;5863;52.832;4.758;2023-03-14T00:40:09;9.90;99.90
11615;DHT22;5863;52.832;4.758;2023-03-14T00:42:37;9.90;99.90
11615;DHT22;5863;52.832;4.758;2023-03-14T00:45:05;9.90;99.90
11615;DHT22;5863;52.832;4.758;2023-03-14T00:47:33;10.00;99.90
11615;DHT22;5863;52.832;4.758;2023-03-14T00:49:59;9.90;99.90
11615;DHT22;5863;52.832;4.758;2023-03-14T00:52:26;10.00;99.90
11615;DHT22;5863;52.832;4.758;2023-03-14T00:54:53;10.00;99.90
11615;DHT22;5863;52.832;4.758;2023-03-14T00:57:19;9.90;99.90
11615;DHT22;5863;52.832;4.758;2023-03-14T00:59:47;9.90;99.90
11615;DHT22;5863;52.832;4.758;2023-03-14T01:02:14;9.90;99.90
11615;DHT22;5863;52.832;4.758;2023-03-14T01:04:41;9.90;99.90
11615;DHT22;5863;52.832;4.758;2023-03-14T01:07:08;9.90;99.90
11615;DHT22;5863;52.832;4.758;2023-03-14T01:09:35;9.90;99.90
11615;DHT22;5863;52.832;4.758;2023-03-14T01:12:01;9.90;99.90
11615;DHT22;5863;52.832;4.758;2023-03-14T01:14:28;9.90;99.90
11615;DHT22;5863;52.832;4.758;2023-03-14T01:16:56;9.90;99.90
11615;DHT22;5863;52.832;4.758;2023-03-14T01:19:26;9.90;99.90
11615;DHT22;5863;52.832;4.758;2023-03-14T01:21:53;9.90;99.90
11615;DHT22;5863;52.832;4.758;2023-03-14T01:24:19;9.90;99.90
11615;DHT22;5863;52.832;4.758;2023-03-14T01:26:46;9.90;99.90
11615;DHT22;5863;52.832;4.758;2023-03-14T01:29:13;10.00;99.90
11615;DHT22;5863;52.832;4.758;2023-03-14T01:31:40;9.90;99.90
11615;DHT22;5863;52.832;4.758;2023-03-14T01:34:07;9.90;99.90
11615;DHT22;5863;52.832;4.758;2023-03-14T01:36:34;9.90;99.90
11615;DHT22;5863;52.832;4.758;2023-03-14T01:39:01;9.90;99.90
11615;DHT22;5863;52.832;4.758;2023-03-14T01:41:28;9.90;99.90
11615;DHT22;5863;52.832;4.758;2023-03-14T01:43:55;9.90;99.90
11615;DHT22;5863;52.832;4.758;2023-03-14T01:46:29;9.90;99.90
11615;DHT22;5863;52.832;4.758;2023-03-14T01:49:05;9.90;99.90
11615;DHT22;5863;52.832;4.758;2023-03-14T01:51:39;9.90;99.90
11615;DHT22;5863;52.832;4.758;2023-03-14T01:54:11;9.90;99.90
11615;DHT22;5863;52.832;4.758;2023-03-14T01:56:41;9.90;99.90
11615;DHT22;5863;52.832;4.758;2023-03-14T01:59:11;9.90;99.90
11615;DHT22;5863;52.832;4.758;2023-03-14T02:01:40;9.90;99.90
11615;DHT22;5863;52.832;4.758;2023-03-14T02:04:08;9.90;99.90
11615;DHT22;5863;52.832;4.758;2023-03-14T02:06:42;9.90;99.90
11615;DHT22;5863;52.832;4.758;2023-03-14T02:09:11;9.80;99.90
11615;DHT22;5863;52.832;4.758;2023-03-14T02:11:42;9.80;99.90
11615;DHT22;5863;52.832;4.758;2023-03-14T02:14:17;9.80;99.90
11615;DHT22;5863;52.832;4.758;2023-03-14T02:16:45;9.80;99.90
11615;DHT22;5863;52.832;4.758;2023-03-14T02:19:13;9.90;99.90
11615;DHT22;5863;52.832;4.758;2023-03-14T02:21:49;9.90;99.90
11615;DHT22;5863;52.832;4.758;2023-03-14T02:24:24;9.90;99.90
11615;DHT22;5863;52.832;4.758;2023-03-14T02:27:11;9.90;99.90
11615;DHT22;5863;52.832;4.758;2023-03-14T02:29:43;9.90;99.90
11615;DHT22;5863;52.832;4.758;2023-03-14T02:32:12;9.90;99.90
11615;DHT22;5863;52.832;4.758;2023-03-14T02:34:41;9.80;99.90
11615;DHT22;5863;52.832;4.758;2023-03-14T02:37:10;9.80;99.90
11615;DHT22;5863;52.832;4.758;2023-03-14T02:39:40;9.90;99.90
11615;DHT22;5863;52.832;4.758;2023-03-14T02:42:09;9.90;99.90
11615;DHT22;5863;52.832;4.758;2023-03-14T02:44:48;9.90;99.90
11615;DHT22;5863;52.832;4.758;2023-03-14T02:47:15;9.90;99.90
11615;DHT22;5863;52.832;4.758;2023-03-14T02:49:42;9.80;99.90
11615;DHT22;5863;52.832;4.758;2023-03-14T02:52:09;9.80;99.90
11615;DHT22;5863;52.832;4.758;2023-03-14T02:54:36;9.80;99.90
11615;DHT22;5863;52.832;4.758;2023-03-14T02:57:03;9.80;99.90
11615;DHT22;5863;52.832;4.758;2023-03-14T02:59:31;9.80;99.90
11615;DHT22;5863;52.832;4.758;2023-03-14T03:01:59;9.80;99.90
11615;DHT22;5863;52.832;4.758;2023-03-14T03:04:26;9.80;99.90
11615;DHT22;5863;52.832;4.758;2023-03-14T03:06:52;9.80;99.90
11615;DHT22;5863;52.832;4.758;2023-03-14T03:09:19;9.80;99.90
11615;DHT22;5863;52.832;4.758;2023-03-14T03:11:46;9.70;99.90
11615;DHT22;5863;52.832;4.758;2023-03-14T03:14:12;9.80;99.90
11615;DHT22;5863;52.832;4.758;2023-03-14T03:16:40;9.80;99.90
11615;DHT22;5863;52.832;4.758;2023-03-14T03:19:07;9.80;99.90
11615;DHT22;5863;52.832;4.758;2023-03-14T03:21:33;9.80;99.90
11615;DHT22;5863;52.832;4.758;2023-03-14T03:24:01;9.80;99.90
11615;DHT22;5863;52.832;4.758;2023-03-14T03:26:27;9.80;99.90
11615;DHT22;5863;52.832;4.758;2023-03-14T03:28:54;9.80;99.90
11615;DHT22;5863;52.832;4.758;2023-03-14T03:31:21;9.80;99.90
11615;DHT22;5863;52.832;4.758;2023-03-14T03:33:49;9.80;99.90
11615;DHT22;5863;52.832;4.758;2023-03-14T03:36:17;9.80;99.90
11615;DHT22;5863;52.832;4.758;2023-03-14T03:38:46;9.70;99.90
11615;DHT22;5863;52.832;4.758;2023-03-14T03:41:13;9.70;99.90
11615;DHT22;5863;52.832;4.758;2023-03-14T03:43:40;9.70;99.90
11615;DHT22;5863;52.832;4.758;2023-03-14T03:46:07;9.70;99.90
11615;DHT22;5863;52.832;4.758;2023-03-14T03:48:35;9.70;99.90
11615;DHT22;5863;52.832;4.758;2023-03-14T03:51:03;9.70;99.90
11615;DHT22;5863;52.832;4.758;2023-03-14T03:53:30;9.60;99.90
11615;DHT22;5863;52.832;4.758;2023-03-14T03:55:57;9.60;99.90
11615;DHT22;5863;52.832;4.758;2023-03-14T03:58:23;9.60;99.90
11615;DHT22;5863;52.832;4.758;2023-03-14T04:00:50;9.60;99.90
11615;DHT22;5863;52.832;4.758;2023-03-14T04:03:17;9.60;99.90
11615;DHT22;5863;52.832;4.758;2023-03-14T04:05:43;9.60;99.90
11615;DHT22;5863;52.832;4.758;2023-03-14T04:08:13;9.60;99.90
11615;DHT22;5863;52.832;4.758;2023-03-14T04:10:40;9.50;99.90
11615;DHT22;5863;52.832;4.758;2023-03-14T04:13:07;9.50;99.90
11615;DHT22;5863;52.832;4.758;2023-03-14T04:15:33;9.50;99.90
11615;DHT22;5863;52.832;4.758;2023-03-14T04:18:00;9.50;99.90
11615;DHT22;5863;52.832;4.758;2023-03-14T04:20:27;9.50;99.90
11615;DHT22;5863;52.832;4.758;2023-03-14T04:22:53;9.50;99.90
11615;DHT22;5863;52.832;4.758;2023-03-14T04:25:21;9.50;99.90
11615;DHT22;5863;52.832;4.758;2023-03-14T04:27:48;9.50;99.90
11615;DHT22;5863;52.832;4.758;2023-03-14T04:30:15;9.50;99.90
11615;DHT22;5863;52.832;4.758;2023-03-14T04:32:41;9.50;99.90
11615;DHT22;5863;52.832;4.758;2023-03-14T04:35:08;9.50;99.90
11615;DHT22;5863;52.832;4.758;2023-03-14T04:37:35;9.50;99.90
11615;DHT22;5863;52.832;4.758;2023-03-14T04:40:02;9.50;99.90
11615;DHT22;5863;52.832;4.758;2023-03-14T04:42:33;9.50;99.90
11615;DHT22;5863;52.832;4.758;2023-03-14T04:44:59;9.50;99.90
11615;DHT22;5863;52.832;4.758;2023-03-14T04:47:27;9.50;99.90
11615;DHT22;5863;52.832;4.758;2023-03-14T04:49:53;9.50;99.90
11615;DHT22;5863;52.832;4.758;2023-03-14T04:52:20;9.50;99.90
11615;DHT22;5863;52.832;4.758;2023-03-14T04:54:47;9.50;99.90
11615;DHT22;5863;52.832;4.758;2023-03-14T04:57:14;9.40;99.90
11615;DHT22;5863;52.832;4.758;2023-03-14T04:59:42;9.30;99.90
11615;DHT22;5863;52.832;4.758;2023-03-14T05:02:08;9.30;99.90
11615;DHT22;5863;52.832;4.758;2023-03-14T05:04:35;9.20;99.90
11615;DHT22;5863;52.832;4.758;2023-03-14T05:07:02;9.10;99.90
11615;DHT22;5863;52.832;4.758;2023-03-14T05:09:29;9.00;99.90
11615;DHT22;5863;52.832;4.758;2023-03-14T05:11:58;9.00;99.90
11615;DHT22;5863;52.832;4.758;2023-03-14T05:14:25;9.00;99.90
11615;DHT22;5863;52.832;4.758;2023-03-14T05:16:53;9.00;99.90
11615;DHT22;5863;52.832;4.758;2023-03-14T05:19:20;9.00;99.90
11615;DHT22;5863;52.832;4.758;2023-03-14T05:21:46;8.90;99.90
11615;DHT22;5863;52.832;4.758;2023-03-14T05:24:13;8.90;99.90
11615;DHT22;5863;52.832;4.758;2023-03-14T05:26:40;8.80;99.90
11615;DHT22;5863;52.832;4.758;2023-03-14T05:29:16;8.80;99.90
11615;DHT22;5863;52.832;4.758;2023-03-14T05:31:43;8.70;99.90
11615;DHT22;5863;52.832;4.758;2023-03-14T05:34:11;8.70;99.90
11615;DHT22;5863;52.832;4.758;2023-03-14T05:36:38;8.70;99.90
11615;DHT22;5863;52.832;4.758;2023-03-14T05:39:04;8.70;99.90
11615;DHT22;5863;52.832;4.758;2023-03-14T05:41:31;8.60;99.90
11615;DHT22;5863;52.832;4.758;2023-03-14T05:43:58;8.60;99.90
11615;DHT22;5863;52.832;4.758;2023-03-14T05:46:24;8.50;99.90
11615;DHT22;5863;52.832;4.758;2023-03-14T05:48:51;8.50;99.90
11615;DHT22;5863;52.832;4.758;2023-03-14T05:51:19;8.50;99.90
11615;DHT22;5863;52.832;4.758;2023-03-14T05:53:46;8.40;99.90
11615;DHT22;5863;52.832;4.758;2023-03-14T05:56:12;8.40;99.90
11615;DHT22;5863;52.832;4.758;2023-03-14T05:58:39;8.30;99.90
11615;DHT22;5863;52.832;4.758;2023-03-14T06:01:06;8.30;99.90
11615;DHT22;5863;52.832;4.758;2023-03-14T06:03:34;8.30;99.90
11615;DHT22;5863;52.832;4.758;2023-03-14T06:06:00;8.30;99.90
11615;DHT22;5863;52.832;4.758;2023-03-14T06:08:28;8.20;99.90
11615;DHT22;5863;52.832;4.758;2023-03-14T06:10:56;8.00;99.90
11615;DHT22;5863;52.832;4.758;2023-03-14T06:13:23;7.90;99.90
11615;DHT22;5863;52.832;4.758;2023-03-14T06:15:50;7.80;99.90
11615;DHT22;5863;52.832;4.758;2023-03-14T06:18:16;7.60;99.90
11615;DHT22;5863;52.832;4.758;2023-03-14T06:20:43;7.50;99.90
11615;DHT22;5863;52.832;4.758;2023-03-14T06:23:11;7.40;99.90
11615;DHT22;5863;52.832;4.758;2023-03-14T06:25:39;7.20;99.90
11615;DHT22;5863;52.832;4.758;2023-03-14T06:28:06;7.10;99.90
11615;DHT22;5863;52.832;4.758;2023-03-14T06:30:32;7.00;99.90
11615;DHT22;5863;52.832;4.758;2023-03-14T06:32:59;7.00;99.90
11615;DHT22;5863;52.832;4.758;2023-03-14T06:35:26;7.00;99.90
11615;DHT22;5863;52.832;4.758;2023-03-14T06:37:53;7.00;99.90
11615;DHT22;5863;52.832;4.758;2023-03-14T06:40:19;6.90;99.90
11615;DHT22;5863;52.832;4.758;2023-03-14T06:42:47;6.90;99.90
11615;DHT22;5863;52.832;4.758;2023-03-14T06:45:14;6.90;99.90
11615;DHT22;5863;52.832;4.758;2023-03-14T06:47:41;6.80;99.90
11615;DHT22;5863;52.832;4.758;2023-03-14T06:50:09;6.80;99.90
11615;DHT22;5863;52.832;4.758;2023-03-14T06:52:37;6.80;99.90
11615;DHT22;5863;52.832;4.758;2023-03-14T06:55:07;6.80;99.90
11615;DHT22;5863;52.832;4.758;2023-03-14T06:57:33;6.80;99.90
11615;DHT22;5863;52.832;4.758;2023-03-14T07:00:02;6.80;99.90
11615;DHT22;5863;52.832;4.758;2023-03-14T07:02:29;6.80;99.90
11615;DHT22;5863;52.832;4.758;2023-03-14T07:04:55;6.70;99.90
11615;DHT22;5863;52.832;4.758;2023-03-14T07:07:23;6.70;99.90
11615;DHT22;5863;52.832;4.758;2023-03-14T07:09:50;6.70;99.90
11615;DHT22;5863;52.832;4.758;2023-03-14T07:12:16;6.80;99.90
11615;DHT22;5863;52.832;4.758;2023-03-14T07:14:43;6.80;99.90
11615;DHT22;5863;52.832;4.758;2023-03-14T07:17:11;6.80;99.90
11615;DHT22;5863;52.832;4.758;2023-03-14T07:19:38;6.80;99.90
11615;DHT22;5863;52.832;4.758;2023-03-14T07:22:05;6.80;99.90
11615;DHT22;5863;52.832;4.758;2023-03-14T07:24:32;6.80;99.90
11615;DHT22;5863;52.832;4.758;2023-03-14T07:26:59;6.70;99.90
11615;DHT22;5863;52.832;4.758;2023-03-14T07:29:25;6.70;99.90
11615;DHT22;5863;52.832;4.758;2023-03-14T07:31:52;6.70;99.90
11615;DHT22;5863;52.832;4.758;2023-03-14T07:34:20;6.70;99.90
11615;DHT22;5863;52.832;4.758;2023-03-14T07:36:47;6.70;99.90
11615;DHT22;5863;52.832;4.758;2023-03-14T07:39:13;6.70;99.90
11615;DHT22;5863;52.832;4.758;2023-03-14T07:41:40;6.70;99.90
11615;DHT22;5863;52.832;4.758;2023-03-14T07:44:07;6.80;99.90
11615;DHT22;5863;52.832;4.758;2023-03-14T07:46:34;6.80;99.90
11615;DHT22;5863;52.832;4.758;2023-03-14T07:49:00;6.90;99.90
11615;DHT22;5863;52.832;4.758;2023-03-14T07:51:28;6.90;99.90
11615;DHT22;5863;52.832;4.758;2023-03-14T07:53:55;6.90;99.90
11615;DHT22;5863;52.832;4.758;2023-03-14T07:56:22;7.00;99.90
11615;DHT22;5863;52.832;4.758;2023-03-14T07:58:49;7.00;99.90
11615;DHT22;5863;52.832;4.758;2023-03-14T08:01:16;7.10;99.90
11615;DHT22;5863;52.832;4.758;2023-03-14T08:03:43;7.10;99.90
11615;DHT22;5863;52.832;4.758;2023-03-14T08:06:09;7.10;99.90
11615;DHT22;5863;52.832;4.758;2023-03-14T08:08:38;7.10;99.90
11615;DHT22;5863;52.832;4.758;2023-03-14T08:11:06;7.20;99.90
11615;DHT22;5863;52.832;4.758;2023-03-14T08:13:34;7.20;99.90
11615;DHT22;5863;52.832;4.758;2023-03-14T08:16:01;7.30;99.90
11615;DHT22;5863;52.832;4.758;2023-03-14T08:18:34;7.30;99.90
11615;DHT22;5863;52.832;4.758;2023-03-14T08:21:00;7.30;99.90
11615;DHT22;5863;52.832;4.758;2023-03-14T08:23:36;7.30;99.90
11615;DHT22;5863;52.832;4.758;2023-03-14T08:26:03;7.30;99.90
11615;DHT22;5863;52.832;4.758;2023-03-14T08:28:30;7.30;99.90
11615;DHT22;5863;52.832;4.758;2023-03-14T08:30:58;7.30;99.90
11615;DHT22;5863;52.832;4.758;2023-03-14T08:33:26;7.30;99.90
11615;DHT22;5863;52.832;4.758;2023-03-14T08:35:53;7.30;99.90
11615;DHT22;5863;52.832;4.758;2023-03-14T08:38:20;7.30;99.90
11615;DHT22;5863;52.832;4.758;2023-03-14T08:40:48;7.10;99.90
11615;DHT22;5863;52.832;4.758;2023-03-14T08:43:15;6.90;99.90
11615;DHT22;5863;52.832;4.758;2023-03-14T08:45:42;6.90;99.90
11615;DHT22;5863;52.832;4.758;2023-03-14T08:48:09;6.80;99.90
11615;DHT22;5863;52.832;4.758;2023-03-14T08:50:35;6.90;99.90
11615;DHT22;5863;52.832;4.758;2023-03-14T08:53:03;6.90;99.90
11615;DHT22;5863;52.832;4.758;2023-03-14T08:55:30;7.00;99.90
11615;DHT22;5863;52.832;4.758;2023-03-14T08:57:58;7.10;99.90
11615;DHT22;5863;52.832;4.758;2023-03-14T09:00:25;7.10;99.90
11615;DHT22;5863;52.832;4.758;2023-03-14T09:02:52;7.20;99.90
11615;DHT22;5863;52.832;4.758;2023-03-14T09:05:18;7.20;99.90
11615;DHT22;5863;52.832;4.758;2023-03-14T09:07:45;7.30;99.90
11615;DHT22;5863;52.832;4.758;2023-03-14T09:10:13;7.30;99.90
11615;DHT22;5863;52.832;4.758;2023-03-14T09:12:40;7.30;99.90
11615;DHT22;5863;52.832;4.758;2023-03-14T09:15:09;7.20;99.90
11615;DHT22;5863;52.832;4.758;2023-03-14T09:17:36;7.20;99.90
11615;DHT22;5863;52.832;4.758;2023-03-14T09:20:03;7.20;99.90
11615;DHT22;5863;52.832;4.758;2023-03-14T09:22:32;7.30;99.90
11615;DHT22;5863;52.832;4.758;2023-03-14T09:25:00;7.20;99.90
11615;DHT22;5863;52.832;4.758;2023-03-14T09:27:26;7.20;99.90
11615;DHT22;5863;52.832;4.758;2023-03-14T09:29:53;7.20;99.90
11615;DHT22;5863;52.832;4.758;2023-03-14T09:32:21;7.30;99.90
11615;DHT22;5863;52.832;4.758;2023-03-14T09:34:47;7.40;99.90
11615;DHT22;5863;52.832;4.758;2023-03-14T09:37:14;7.50;99.90
11615;DHT22;5863;52.832;4.758;2023-03-14T09:39:45;7.70;99.90
11615;DHT22;5863;52.832;4.758;2023-03-14T09:42:15;7.70;99.90
11615;DHT22;5863;52.832;4.758;2023-03-14T09:44:49;7.90;99.90
11615;DHT22;5863;52.832;4.758;2023-03-14T09:47:21;8.00;99.90
11615;DHT22;5863;52.832;4.758;2023-03-14T09:49:48;8.10;99.90
11615;DHT22;5863;52.832;4.758;2023-03-14T09:52:17;8.10;99.90
11615;DHT22;5863;52.832;4.758;2023-03-14T09:54:47;8.20;99.90
11615;DHT22;5863;52.832;4.758;2023-03-14T09:57:17;8.30;99.90
11615;DHT22;5863;52.832;4.758;2023-03-14T09:59:46;8.40;99.90
11615;DHT22;5863;52.832;4.758;2023-03-14T10:02:17;8.50;99.90
11615;DHT22;5863;52.832;4.758;2023-03-14T10:04:47;8.50;99.90
11615;DHT22;5863;52.832;4.758;2023-03-14T10:07:17;8.50;99.90
11615;DHT22;5863;52.832;4.758;2023-03-14T10:09:48;8.60;99.90
11615;DHT22;5863;52.832;4.758;2023-03-14T10:12:15;8.60;99.90
11615;DHT22;5863;52.832;4.758;2023-03-14T10:14:47;8.70;99.90
11615;DHT22;5863;52.832;4.758;2023-03-14T10:17:20;8.80;99.90
11615;DHT22;5863;52.832;4.758;2023-03-14T10:19:56;8.90;99.90
11615;DHT22;5863;52.832;4.758;2023-03-14T10:22:25;9.00;99.90
11615;DHT22;5863;52.832;4.758;2023-03-14T10:24:54;9.00;99.90
11615;DHT22;5863;52.832;4.758;2023-03-14T10:27:28;8.90;99.90
11615;DHT22;5863;52.832;4.758;2023-03-14T10:29:58;8.90;99.90
11615;DHT22;5863;52.832;4.758;2023-03-14T10:32:32;9.00;99.90
11615;DHT22;5863;52.832;4.758;2023-03-14T10:35:18;9.00;99.90
11615;DHT22;5863;52.832;4.758;2023-03-14T10:37:51;8.90;99.90
11615;DHT22;5863;52.832;4.758;2023-03-14T10:40:22;9.00;99.90
11615;DHT22;5863;52.832;4.758;2023-03-14T10:42:50;9.10;99.90
11615;DHT22;5863;52.832;4.758;2023-03-14T10:45:30;9.00;99.90
11615;DHT22;5863;52.832;4.758;2023-03-14T10:48:05;9.10;99.90
11615;DHT22;5863;52.832;4.758;2023-03-14T10:50:34;9.20;99.90
11615;DHT22;5863;52.832;4.758;2023-03-14T10:53:03;9.30;99.90
11615;DHT22;5863;52.832;4.758;2023-03-14T10:55:40;9.40;99.90
11615;DHT22;5863;52.832;4.758;2023-03-14T10:58:21;9.40;99.90
11615;DHT22;5863;52.832;4.758;2023-03-14T11:00:56;9.60;99.90
11615;DHT22;5863;52.832;4.758;2023-03-14T11:03:24;9.70;99.90
11615;DHT22;5863;52.832;4.758;2023-03-14T11:05:57;9.70;99.90
11615;DHT22;5863;52.832;4.758;2023-03-14T11:08:27;9.80;99.90
11615;DHT22;5863;52.832;4.758;2023-03-14T11:11:05;9.90;99.90
11615;DHT22;5863;52.832;4.758;2023-03-14T11:13:37;9.90;99.90
11615;DHT22;5863;52.832;4.758;2023-03-14T11:16:11;10.00;99.90
11615;DHT22;5863;52.832;4.758;2023-03-14T11:18:55;10.00;99.90
11615;DHT22;5863;52.832;4.758;2023-03-14T11:21:32;10.00;99.90
11615;DHT22;5863;52.832;4.758;2023-03-14T11:24:20;10.00;99.90
11615;DHT22;5863;52.832;4.758;2023-03-14T11:26:54;10.00;99.90
11615;DHT22;5863;52.832;4.758;2023-03-14T11:29:28;10.00;99.90
11615;DHT22;5863;52.832;4.758;2023-03-14T11:32:01;10.10;99.90
11615;DHT22;5863;52.832;4.758;2023-03-14T11:34:30;10.10;99.90
11615;DHT22;5863;52.832;4.758;2023-03-14T11:37:01;10.20;99.90
11615;DHT22;5863;52.832;4.758;2023-03-14T11:39:38;10.10;99.90
11615;DHT22;5863;52.832;4.758;2023-03-14T11:42:10;10.20;99.90
11615;DHT22;5863;52.832;4.758;2023-03-14T11:44:39;10.10;99.90
11615;DHT22;5863;52.832;4.758;2023-03-14T11:47:08;10.10;99.90
11615;DHT22;5863;52.832;4.758;2023-03-14T11:49:41;10.20;99.90
11615;DHT22;5863;52.832;4.758;2023-03-14T11:52:14;10.20;99.90
11615;DHT22;5863;52.832;4.758;2023-03-14T11:54:47;10.20;99.90
11615;DHT22;5863;52.832;4.758;2023-03-14T11:57:17;10.10;99.90
11615;DHT22;5863;52.832;4.758;2023-03-14T11:59:51;9.90;99.90
11615;DHT22;5863;52.832;4.758;2023-03-14T12:02:24;9.80;99.90
11615;DHT22;5863;52.832;4.758;2023-03-14T12:08:02;9.80;99.90
11615;DHT22;5863;52.832;4.758;2023-03-14T12:10:37;9.90;99.90
11615;DHT22;5863;52.832;4.758;2023-03-14T12:13:04;9.90;99.90
11615;DHT22;5863;52.832;4.758;2023-03-14T12:15:31;9.90;99.90
11615;DHT22;5863;52.832;4.758;2023-03-14T12:18:02;9.90;99.90
11615;DHT22;5863;52.832;4.758;2023-03-14T12:20:29;10.00;99.90
11615;DHT22;5863;52.832;4.758;2023-03-14T12:23:02;10.00;99.90
11615;DHT22;5863;52.832;4.758;2023-03-14T12:25:31;10.10;99.90
11615;DHT22;5863;52.832;4.758;2023-03-14T12:30:51;9.90;99.90
11615;DHT22;5863;52.832;4.758;2023-03-14T12:33:30;9.90;99.90
11615;DHT22;5863;52.832;4.758;2023-03-14T12:36:03;10.00;99.90
11615;DHT22;5863;52.832;4.758;2023-03-14T12:38:44;9.80;99.30
11615;DHT22;5863;52.832;4.758;2023-03-14T12:41:17;9.70;97.40
11615;DHT22;5863;52.832;4.758;2023-03-14T12:43:46;9.60;99.50
11615;DHT22;5863;52.832;4.758;2023-03-14T12:46:22;9.70;99.90
11615;DHT22;5863;52.832;4.758;2023-03-14T12:48:50;9.70;99.70
11615;DHT22;5863;52.832;4.758;2023-03-14T12:51:21;9.60;98.00
11615;DHT22;5863;52.832;4.758;2023-03-14T12:57:09;9.60;99.90
11615;DHT22;5863;52.832;4.758;2023-03-14T12:59:46;9.60;99.90
11615;DHT22;5863;52.832;4.758;2023-03-14T13:02:21;9.70;99.90
11615;DHT22;5863;52.832;4.758;2023-03-14T13:04:51;9.70;99.90
11615;DHT22;5863;52.832;4.758;2023-03-14T13:07:32;9.70;99.90
11615;DHT22;5863;52.832;4.758;2023-03-14T13:10:18;9.70;99.90
11615;DHT22;5863;52.832;4.758;2023-03-14T13:12:54;9.50;99.90
11615;DHT22;5863;52.832;4.758;2023-03-14T13:15:27;9.60;99.90
11615;DHT22;5863;52.832;4.758;2023-03-14T13:17:59;9.60;99.80
11615;DHT22;5863;52.832;4.758;2023-03-14T13:20:31;9.60;99.50
11615;DHT22;5863;52.832;4.758;2023-03-14T13:22:58;9.70;99.80
11615;DHT22;5863;52.832;4.758;2023-03-14T13:25:29;9.60;99.90
11615;DHT22;5863;52.832;4.758;2023-03-14T13:27:57;9.60;99.80
11615;DHT22;5863;52.832;4.758;2023-03-14T13:30:26;9.60;99.90
11615;DHT22;5863;52.832;4.758;2023-03-14T13:32:54;9.60;99.90
11615;DHT22;5863;52.832;4.758;2023-03-14T13:35:26;9.60;99.90
11615;DHT22;5863;52.832;4.758;2023-03-14T13:37:55;9.50;99.90
11615;DHT22;5863;52.832;4.758;2023-03-14T13:40:26;9.50;99.90
11615;DHT22;5863;52.832;4.758;2023-03-14T13:43:05;9.40;99.90
11615;DHT22;5863;52.832;4.758;2023-03-14T13:45:43;9.40;99.90
11615;DHT22;5863;52.832;4.758;2023-03-14T13:48:11;9.30;99.90
11615;DHT22;5863;52.832;4.758;2023-03-14T13:50:51;9.30;99.90
11615;DHT22;5863;52.832;4.758;2023-03-14T13:53:19;9.20;99.90
11615;DHT22;5863;52.832;4.758;2023-03-14T13:55:45;9.30;99.90
11615;DHT22;5863;52.832;4.758;2023-03-14T13:58:20;9.30;99.90
11615;DHT22;5863;52.832;4.758;2023-03-14T14:00:59;9.30;99.90
11615;DHT22;5863;52.832;4.758;2023-03-14T14:03:26;9.10;99.90
11615;DHT22;5863;52.832;4.758;2023-03-14T14:05:55;9.00;99.90
11615;DHT22;5863;52.832;4.758;2023-03-14T14:08:23;9.10;99.90
11615;DHT22;5863;52.832;4.758;2023-03-14T14:10:50;9.10;99.90
11615;DHT22;5863;52.832;4.758;2023-03-14T14:13:21;9.10;99.90
11615;DHT22;5863;52.832;4.758;2023-03-14T14:15:52;9.20;99.90
11615;DHT22;5863;52.832;4.758;2023-03-14T14:18:21;9.40;99.90
11615;DHT22;5863;52.832;4.758;2023-03-14T14:20:49;9.40;99.90
11615;DHT22;5863;52.832;4.758;2023-03-14T14:23:18;9.40;99.90
11615;DHT22;5863;52.832;4.758;2023-03-14T14:25:52;9.50;99.90
11615;DHT22;5863;52.832;4.758;2023-03-14T14:28:25;9.60;99.90
11615;DHT22;5863;52.832;4.758;2023-03-14T14:31:16;9.50;98.90
11615;DHT22;5863;52.832;4.758;2023-03-14T14:33:44;9.40;99.60
11615;DHT22;5863;52.832;4.758;2023-03-14T14:36:18;9.40;99.80
11615;DHT22;5863;52.832;4.758;2023-03-14T14:38:50;9.40;99.90
11615;DHT22;5863;52.832;4.758;2023-03-14T14:41:17;9.30;98.60
11615;DHT22;5863;52.832;4.758;2023-03-14T14:43:45;9.20;98.50
11615;DHT22;5863;52.832;4.758;2023-03-14T14:46:17;9.10;98.20
11615;DHT22;5863;52.832;4.758;2023-03-14T14:48:44;9.10;99.10
11615;DHT22;5863;52.832;4.758;2023-03-14T14:51:23;9.10;99.70
11615;DHT22;5863;52.832;4.758;2023-03-14T14:53:59;9.00;99.40
11615;DHT22;5863;52.832;4.758;2023-03-14T14:56:27;9.00;99.90
11615;DHT22;5863;52.832;4.758;2023-03-14T14:58:58;8.90;99.90
11615;DHT22;5863;52.832;4.758;2023-03-14T15:01:32;9.00;99.90
11615;DHT22;5863;52.832;4.758;2023-03-14T15:03:59;8.90;99.90
11615;DHT22;5863;52.832;4.758;2023-03-14T15:06:29;8.80;99.90
11615;DHT22;5863;52.832;4.758;2023-03-14T15:08:57;8.80;99.90
11615;DHT22;5863;52.832;4.758;2023-03-14T15:11:25;8.80;99.90
11615;DHT22;5863;52.832;4.758;2023-03-14T15:13:59;8.70;99.90
11615;DHT22;5863;52.832;4.758;2023-03-14T15:16:28;8.70;99.90
11615;DHT22;5863;52.832;4.758;2023-03-14T15:18:57;8.70;99.90
11615;DHT22;5863;52.832;4.758;2023-03-14T15:21:26;8.70;99.90
11615;DHT22;5863;52.832;4.758;2023-03-14T15:24:00;8.60;99.90
11615;DHT22;5863;52.832;4.758;2023-03-14T15:26:27;8.70;99.90
11615;DHT22;5863;52.832;4.758;2023-03-14T15:28:54;8.70;99.90
11615;DHT22;5863;52.832;4.758;2023-03-14T15:31:22;8.70;99.90
11615;DHT22;5863;52.832;4.758;2023-03-14T15:33:49;8.60;99.90
11615;DHT22;5863;52.832;4.758;2023-03-14T15:36:22;8.60;99.90
11615;DHT22;5863;52.832;4.758;2023-03-14T15:38:51;8.60;99.90
11615;DHT22;5863;52.832;4.758;2023-03-14T15:41:18;8.60;99.90
11615;DHT22;5863;52.832;4.758;2023-03-14T15:43:45;8.60;99.90
11615;DHT22;5863;52.832;4.758;2023-03-14T15:46:12;8.60;99.90
11615;DHT22;5863;52.832;4.758;2023-03-14T15:48:41;8.60;99.90
11615;DHT22;5863;52.832;4.758;2023-03-14T15:51:08;8.60;99.90
11615;DHT22;5863;52.832;4.758;2023-03-14T15:53:35;8.60;99.90
11615;DHT22;5863;52.832;4.758;2023-03-14T15:56:03;8.50;99.90
11615;DHT22;5863;52.832;4.758;2023-03-14T15:58:30;8.50;99.60
11615;DHT22;5863;52.832;4.758;2023-03-14T16:01:00;8.40;99.90
11615;DHT22;5863;52.832;4.758;2023-03-14T16:03:27;8.40;99.90
11615;DHT22;5863;52.832;4.758;2023-03-14T16:05:56;8.30;99.90
11615;DHT22;5863;52.832;4.758;2023-03-14T16:08:23;8.30;99.90
11615;DHT22;5863;52.832;4.758;2023-03-14T16:10:51;8.30;99.90
11615;DHT22;5863;52.832;4.758;2023-03-14T16:13:18;8.30;99.90
11615;DHT22;5863;52.832;4.758;2023-03-14T16:15:52;8.30;99.90
11615;DHT22;5863;52.832;4.758;2023-03-14T16:18:19;8.30;99.90
11615;DHT22;5863;52.832;4.758;2023-03-14T16:20:52;8.30;99.90